createdAt,value
2018-07-10T00:00:09.101Z,17.79
2018-07-10T00:01:09.095Z,17.77
2018-07-10T00:02:09.032Z,17.77
2018-07-10T00:03:08.987Z,17.78
2018-07-10T00:04:08.950Z,17.79
2018-07-10T00:05:08.918Z,17.75
2018-07-10T00:06:08.881Z,17.75
2018-07-10T00:07:08.868Z,17.66
2018-07-10T00:08:08.834Z,17.70
2018-07-10T00:09:08.762Z,17.66
2018-07-10T00:10:08.722Z,17.71
2018-07-10T00:11:08.688Z,17.59
2018-07-10T00:12:08.696Z,17.66
2018-07-10T00:13:08.624Z,17.59
2018-07-10T00:14:08.580Z,17.68
2018-07-10T00:15:08.551Z,17.55
2018-07-10T00:16:08.504Z,17.52
2018-07-10T00:17:08.485Z,17.56
2018-07-10T00:18:08.422Z,17.52
2018-07-10T00:19:08.392Z,17.54
2018-07-10T00:20:08.354Z,17.52
2018-07-10T00:21:08.310Z,17.46
2018-07-10T00:22:08.309Z,17.40
2018-07-10T00:23:08.238Z,17.43
2018-07-10T00:24:08.199Z,17.40
2018-07-10T00:25:08.170Z,17.43
2018-07-10T00:26:08.129Z,17.38
2018-07-10T00:27:08.093Z,17.55
2018-07-10T00:28:08.084Z,17.43
2018-07-10T00:29:08.013Z,17.51
2018-07-10T00:30:07.974Z,17.52
2018-07-10T00:31:07.936Z,17.37
2018-07-10T00:32:07.904Z,17.44
2018-07-10T00:33:07.889Z,17.31
2018-07-10T00:34:07.829Z,17.31
2018-07-10T00:35:07.785Z,17.34
2018-07-10T00:36:07.749Z,17.25
2018-07-10T00:37:07.718Z,17.16
2018-07-10T00:38:07.704Z,17.23
2018-07-10T00:39:07.642Z,17.04
2018-07-10T00:40:07.602Z,17.06
2018-07-10T00:41:07.561Z,16.98
2018-07-10T00:42:07.521Z,17.06
2018-07-10T00:43:07.485Z,16.85
2018-07-10T00:44:07.466Z,16.89
2018-07-10T00:45:07.416Z,16.86
2018-07-10T00:46:07.377Z,16.73
2018-07-10T00:47:07.338Z,16.78
2018-07-10T00:48:07.303Z,16.75
2018-07-10T00:49:07.278Z,16.71
2018-07-10T00:50:07.220Z,16.61
2018-07-10T00:51:07.191Z,16.67
2018-07-10T00:52:07.151Z,16.64
2018-07-10T00:53:07.104Z,16.58
2018-07-10T00:54:07.094Z,16.53
2018-07-10T00:55:07.031Z,16.49
2018-07-10T00:56:06.991Z,16.46
2018-07-10T00:57:06.960Z,16.45
2018-07-10T00:58:06.922Z,16.49
2018-07-10T00:59:06.894Z,16.43
2018-07-10T01:00:06.868Z,16.41
2018-07-10T01:01:06.804Z,16.43
2018-07-10T01:02:06.765Z,16.48
2018-07-10T01:03:06.725Z,16.48
2018-07-10T01:04:06.691Z,16.49
2018-07-10T01:05:06.675Z,16.48
2018-07-10T01:06:06.618Z,16.42
2018-07-10T01:07:06.578Z,16.48
2018-07-10T01:08:06.539Z,16.43
2018-07-10T01:09:06.507Z,16.41
2018-07-10T01:10:06.465Z,16.42
2018-07-10T01:11:06.469Z,16.39
2018-07-10T01:12:06.396Z,16.35
2018-07-10T01:13:06.353Z,16.33
2018-07-10T01:14:06.308Z,16.31
2018-07-10T01:15:06.271Z,16.38
2018-07-10T01:16:06.256Z,16.35
2018-07-10T01:17:06.199Z,16.31
2018-07-10T01:18:06.163Z,16.31
2018-07-10T01:19:06.126Z,16.34
2018-07-10T01:20:06.087Z,16.42
2018-07-10T01:21:06.063Z,16.31
2018-07-10T01:22:06.003Z,16.15
2018-07-10T01:23:05.970Z,16.30
2018-07-10T01:24:05.937Z,16.21
2018-07-10T01:25:05.885Z,16.31
2018-07-10T01:26:05.874Z,16.42
2018-07-10T01:27:05.814Z,16.33
2018-07-10T01:28:05.771Z,16.17
2018-07-10T01:29:05.744Z,16.30
2018-07-10T01:30:05.704Z,16.24
2018-07-10T01:31:05.665Z,16.25
2018-07-10T01:32:05.659Z,16.12
2018-07-10T01:33:05.581Z,16.23
2018-07-10T01:34:05.546Z,16.00
2018-07-10T01:35:05.504Z,16.05
2018-07-10T01:36:05.489Z,16.01
2018-07-10T01:37:05.437Z,15.87
2018-07-10T01:38:05.401Z,15.75
2018-07-10T01:39:05.353Z,15.82
2018-07-10T01:40:05.315Z,15.68
2018-07-10T01:41:05.305Z,15.76
2018-07-10T01:42:05.248Z,15.60
2018-07-10T01:43:05.204Z,15.60
2018-07-10T01:44:05.167Z,15.59
2018-07-10T01:45:05.119Z,15.60
2018-07-10T01:46:05.107Z,15.56
2018-07-10T01:47:05.048Z,15.50
2018-07-10T01:48:05.022Z,15.41
2018-07-10T01:49:04.973Z,15.43
2018-07-10T01:50:04.943Z,15.43
2018-07-10T01:51:04.926Z,15.41
2018-07-10T01:52:04.861Z,15.39
2018-07-10T01:53:04.816Z,15.38
2018-07-10T01:54:04.781Z,15.35
2018-07-10T01:55:04.745Z,15.39
2018-07-10T01:56:04.730Z,15.35
2018-07-10T01:57:04.658Z,15.39
2018-07-10T01:58:04.622Z,15.39
2018-07-10T01:59:04.584Z,15.39
2018-07-10T02:00:04.543Z,15.43
2018-07-10T02:01:04.534Z,15.49
2018-07-10T02:02:04.474Z,15.41
2018-07-10T02:03:04.440Z,15.50
2018-07-10T02:04:04.397Z,15.50
2018-07-10T02:05:04.353Z,15.43
2018-07-10T02:06:04.337Z,15.46
2018-07-10T02:07:04.276Z,15.46
2018-07-10T02:08:04.234Z,15.46
2018-07-10T02:09:04.207Z,15.47
2018-07-10T02:10:04.167Z,15.47
2018-07-10T02:11:04.147Z,15.47
2018-07-10T02:12:04.084Z,15.57
2018-07-10T02:13:04.051Z,15.62
2018-07-10T02:14:04.039Z,15.59
2018-07-10T02:15:03.974Z,15.57
2018-07-10T02:16:03.935Z,15.64
2018-07-10T02:17:03.915Z,15.64
2018-07-10T02:18:03.856Z,15.56
2018-07-10T02:19:03.812Z,15.56
2018-07-10T02:20:03.772Z,15.59
2018-07-10T02:21:03.742Z,15.57
2018-07-10T02:22:03.727Z,15.64
2018-07-10T02:23:03.668Z,15.57
2018-07-10T02:24:03.626Z,15.59
2018-07-10T02:25:03.580Z,15.56
2018-07-10T02:26:03.544Z,15.59
2018-07-10T02:27:03.542Z,15.57
2018-07-10T02:28:03.468Z,15.67
2018-07-10T02:29:03.428Z,15.59
2018-07-10T02:30:03.390Z,15.60
2018-07-10T02:31:03.356Z,15.67
2018-07-10T02:32:03.312Z,15.65
2018-07-10T02:33:03.315Z,15.59
2018-07-10T02:34:03.242Z,15.65
2018-07-10T02:35:03.212Z,15.60
2018-07-10T02:36:03.171Z,15.65
2018-07-10T02:37:03.123Z,15.59
2018-07-10T02:38:03.105Z,15.71
2018-07-10T02:39:03.049Z,15.67
2018-07-10T02:40:03.005Z,15.65
2018-07-10T02:41:02.972Z,15.60
2018-07-10T02:42:02.937Z,15.62
2018-07-10T02:43:02.928Z,15.46
2018-07-10T02:44:02.853Z,15.49
2018-07-10T02:45:02.817Z,15.47
2018-07-10T02:46:02.788Z,15.43
2018-07-10T02:47:02.749Z,15.46
2018-07-10T02:48:02.704Z,15.47
2018-07-10T02:49:02.681Z,15.41
2018-07-10T02:50:02.624Z,15.46
2018-07-10T02:51:02.581Z,15.41
2018-07-10T02:52:02.547Z,15.46
2018-07-10T02:53:02.527Z,15.44
2018-07-10T02:54:02.497Z,15.41
2018-07-10T02:55:02.440Z,15.41
2018-07-10T02:56:02.395Z,15.50
2018-07-10T02:57:02.351Z,15.49
2018-07-10T02:58:02.318Z,15.41
2018-07-10T02:59:02.282Z,15.50
2018-07-10T03:00:02.269Z,15.50
2018-07-10T03:01:02.199Z,15.49
2018-07-10T03:02:02.159Z,15.46
2018-07-10T03:03:02.119Z,15.46
2018-07-10T03:04:02.083Z,15.50
2018-07-10T03:05:02.132Z,15.51
2018-07-10T03:06:02.009Z,15.47
2018-07-10T03:07:01.971Z,15.46
2018-07-10T03:08:01.936Z,15.51
2018-07-10T03:09:01.887Z,15.46
2018-07-10T03:10:01.849Z,15.46
2018-07-10T03:11:01.835Z,15.50
2018-07-10T03:12:01.772Z,15.49
2018-07-10T03:13:01.741Z,15.46
2018-07-10T03:14:01.704Z,15.41
2018-07-10T03:15:01.657Z,15.47
2018-07-10T03:16:01.638Z,15.41
2018-07-10T03:17:01.589Z,15.46
2018-07-10T03:18:01.549Z,15.44
2018-07-10T03:19:01.513Z,15.49
2018-07-10T03:20:01.474Z,15.46
2018-07-10T03:21:01.451Z,15.36
2018-07-10T03:22:01.383Z,15.46
2018-07-10T03:23:01.351Z,15.38
2018-07-10T03:24:01.309Z,15.34
2018-07-10T03:25:01.281Z,15.44
2018-07-10T03:26:01.265Z,15.39
2018-07-10T03:27:01.201Z,15.43
2018-07-10T03:28:01.159Z,15.38
2018-07-10T03:29:01.117Z,15.46
2018-07-10T03:30:01.082Z,15.47
2018-07-10T03:31:01.049Z,15.46
2018-07-10T03:32:01.032Z,15.46
2018-07-10T03:33:00.964Z,15.47
2018-07-10T03:34:00.925Z,15.46
2018-07-10T03:35:00.883Z,15.49
2018-07-10T03:36:00.855Z,15.46
2018-07-10T03:37:00.835Z,15.47
2018-07-10T03:38:00.778Z,15.51
2018-07-10T03:39:00.741Z,15.53
2018-07-10T03:40:00.699Z,15.47
2018-07-10T03:41:00.654Z,15.47
2018-07-10T03:42:00.641Z,15.50
2018-07-10T03:43:00.578Z,15.47
2018-07-10T03:44:00.536Z,15.51
2018-07-10T03:45:00.510Z,15.43
2018-07-10T03:46:00.472Z,15.46
2018-07-10T03:47:00.424Z,15.43
2018-07-10T03:48:00.405Z,15.47
2018-07-10T03:49:00.353Z,15.44
2018-07-10T03:50:00.316Z,15.50
2018-07-10T03:51:00.276Z,15.44
2018-07-10T03:52:00.237Z,15.50
2018-07-10T03:53:00.214Z,15.49
2018-07-10T03:54:00.155Z,15.51
2018-07-10T03:55:00.125Z,15.50
2018-07-10T03:56:00.076Z,15.50
2018-07-10T03:57:00.045Z,15.46
2018-07-10T03:58:00.038Z,15.50
2018-07-10T03:58:59.965Z,15.46
2018-07-10T03:59:59.930Z,15.44
2018-07-10T04:00:59.884Z,15.39
2018-07-10T04:01:59.842Z,15.44
2018-07-10T04:02:59.813Z,15.44
2018-07-10T04:03:59.799Z,15.46
2018-07-10T04:04:59.730Z,15.43
2018-07-10T04:05:59.691Z,15.43
2018-07-10T04:06:59.656Z,15.43
2018-07-10T04:07:59.612Z,15.46
2018-07-10T04:08:59.645Z,15.49
2018-07-10T04:09:59.543Z,15.44
2018-07-10T04:10:59.504Z,15.38
2018-07-10T04:11:59.464Z,15.49
2018-07-10T04:12:59.419Z,15.43
2018-07-10T04:13:59.386Z,15.47
2018-07-10T04:14:59.363Z,15.43
2018-07-10T04:15:59.311Z,15.50
2018-07-10T04:16:59.276Z,15.46
2018-07-10T04:17:59.235Z,15.46
2018-07-10T04:18:59.194Z,15.44
2018-07-10T04:19:59.180Z,15.47
2018-07-10T04:20:59.125Z,15.47
2018-07-10T04:21:59.081Z,15.43
2018-07-10T04:22:59.065Z,15.60
2018-07-10T04:23:59.004Z,15.59
2018-07-10T04:24:58.960Z,15.54
2018-07-10T04:25:58.939Z,15.60
2018-07-10T04:26:58.885Z,15.59
2018-07-10T04:27:58.841Z,15.57
2018-07-10T04:28:58.848Z,15.59
2018-07-10T04:29:58.775Z,15.62
2018-07-10T04:30:58.765Z,15.60
2018-07-10T04:31:58.696Z,15.62
2018-07-10T04:32:58.650Z,15.62
2018-07-10T04:33:58.614Z,15.67
2018-07-10T04:34:58.584Z,15.62
2018-07-10T04:35:58.541Z,15.59
2018-07-10T04:36:58.518Z,15.65
2018-07-10T04:37:58.459Z,15.69
2018-07-10T04:38:58.421Z,15.59
2018-07-10T04:39:58.381Z,15.69
2018-07-10T04:40:58.352Z,15.71
2018-07-10T04:41:58.334Z,15.71
2018-07-10T04:42:58.274Z,15.71
2018-07-10T04:43:58.229Z,15.76
2018-07-10T04:44:58.200Z,15.80
2018-07-10T04:45:58.159Z,15.78
2018-07-10T04:46:58.145Z,15.86
2018-07-10T04:47:58.084Z,15.75
2018-07-10T04:48:58.052Z,15.78
2018-07-10T04:49:58.003Z,15.84
2018-07-10T04:50:57.971Z,15.86
2018-07-10T04:51:57.952Z,15.74
2018-07-10T04:52:57.887Z,15.75
2018-07-10T04:53:57.850Z,15.83
2018-07-10T04:54:57.807Z,15.89
2018-07-10T04:55:57.770Z,15.89
2018-07-10T04:56:57.766Z,15.92
2018-07-10T04:57:57.697Z,15.92
2018-07-10T04:58:57.665Z,16.07
2018-07-10T04:59:57.625Z,16.05
2018-07-10T05:00:57.578Z,16.24
2018-07-10T05:01:57.541Z,16.24
2018-07-10T05:02:57.525Z,16.39
2018-07-10T05:03:57.468Z,16.45
2018-07-10T05:04:57.434Z,16.42
2018-07-10T05:05:57.431Z,16.70
2018-07-10T05:06:57.352Z,16.82
2018-07-10T05:07:57.329Z,16.85
2018-07-10T05:08:57.279Z,17.01
2018-07-10T05:09:57.242Z,17.11
2018-07-10T05:10:57.207Z,17.31
2018-07-10T05:11:57.173Z,18.33
2018-07-10T05:12:57.149Z,19.66
2018-07-10T05:13:57.087Z,21.01
2018-07-10T05:14:57.049Z,22.05
2018-07-10T05:15:57.007Z,22.60
2018-07-10T05:16:56.980Z,23.19
2018-07-10T05:17:56.941Z,23.73
2018-07-10T05:18:56.927Z,24.22
2018-07-10T05:19:56.866Z,24.98
2018-07-10T05:20:56.824Z,24.96
2018-07-10T05:21:56.786Z,25.17
2018-07-10T05:22:56.822Z,25.45
2018-07-10T05:23:56.720Z,25.64
2018-07-10T05:24:56.676Z,25.10
2018-07-10T05:25:56.638Z,25.55
2018-07-10T05:26:56.608Z,25.60
2018-07-10T05:27:56.590Z,25.47
2018-07-10T05:28:56.678Z,25.54
2018-07-10T05:29:56.508Z,25.54
2018-07-10T05:30:56.472Z,25.15
2018-07-10T05:31:56.435Z,23.91
2018-07-10T05:32:56.419Z,24.45
2018-07-10T05:33:56.361Z,24.77
2018-07-10T05:34:56.326Z,25.24
2018-07-10T05:35:56.289Z,25.40
2018-07-10T05:36:56.263Z,25.69
2018-07-10T05:37:56.253Z,25.72
2018-07-10T05:38:56.189Z,26.07
2018-07-10T05:39:56.152Z,26.50
2018-07-10T05:40:56.129Z,26.18
2018-07-10T05:41:56.092Z,25.33
2018-07-10T05:42:56.083Z,25.05
2018-07-10T05:43:56.026Z,25.73
2018-07-10T05:44:55.983Z,24.34
2018-07-10T05:45:55.952Z,25.08
2018-07-10T05:46:55.920Z,25.42
2018-07-10T05:47:55.911Z,25.83
2018-07-10T05:48:55.856Z,26.92
2018-07-10T05:49:55.827Z,27.29
2018-07-10T05:50:55.796Z,27.75
2018-07-10T05:51:55.817Z,26.32
2018-07-10T05:52:55.743Z,24.67
2018-07-10T05:53:55.684Z,24.60
2018-07-10T05:54:55.671Z,24.00
2018-07-10T05:55:55.630Z,24.30
2018-07-10T05:56:55.585Z,23.69
2018-07-10T05:57:55.572Z,23.80
2018-07-10T05:58:55.522Z,23.07
2018-07-10T05:59:55.488Z,23.63
2018-07-10T06:00:55.463Z,23.12
2018-07-10T06:01:55.424Z,22.64
2018-07-10T06:02:55.417Z,22.06
2018-07-10T06:03:55.363Z,21.28
2018-07-10T06:04:55.321Z,20.89
2018-07-10T06:05:55.284Z,20.89
2018-07-10T06:06:55.279Z,20.85
2018-07-10T06:07:55.221Z,20.73
2018-07-10T06:08:55.200Z,20.70
2018-07-10T06:09:55.158Z,20.11
2018-07-10T06:10:55.121Z,20.20
2018-07-10T06:11:55.108Z,20.29
2018-07-10T06:12:55.062Z,20.26
2018-07-10T06:13:55.064Z,20.43
2018-07-10T06:14:54.991Z,20.58
2018-07-10T06:15:54.955Z,20.85
2018-07-10T06:16:54.936Z,21.22
2018-07-10T06:17:54.883Z,21.49
2018-07-10T06:18:54.849Z,21.74
2018-07-10T06:19:54.810Z,22.90
2018-07-10T06:20:54.783Z,23.83
2018-07-10T06:21:54.774Z,25.17
2018-07-10T06:22:54.717Z,26.15
2018-07-10T06:23:54.679Z,26.55
2018-07-10T06:24:54.640Z,27.04
2018-07-10T06:25:54.605Z,28.44
2018-07-10T06:26:54.608Z,28.93
2018-07-10T06:27:54.542Z,28.77
2018-07-10T06:28:54.506Z,28.88
2018-07-10T06:29:54.474Z,26.91
2018-07-10T06:30:54.442Z,25.62
2018-07-10T06:31:54.429Z,24.67
2018-07-10T06:32:54.376Z,23.84
2018-07-10T06:33:54.347Z,23.05
2018-07-10T06:34:54.312Z,22.65
2018-07-10T06:35:54.286Z,22.25
2018-07-10T06:36:54.238Z,21.80
2018-07-10T06:37:54.230Z,21.53
2018-07-10T06:38:54.177Z,21.21
2018-07-10T06:39:54.140Z,20.87
2018-07-10T06:40:54.116Z,20.87
2018-07-10T06:41:54.083Z,20.57
2018-07-10T06:42:54.060Z,20.54
2018-07-10T06:43:54.007Z,20.57
2018-07-10T06:44:53.983Z,20.20
2018-07-10T06:45:53.946Z,19.73
2018-07-10T06:46:53.910Z,19.55
2018-07-10T06:47:53.909Z,19.46
2018-07-10T06:48:53.839Z,19.47
2018-07-10T06:49:53.807Z,19.55
2018-07-10T06:50:53.768Z,19.51
2018-07-10T06:51:53.737Z,19.51
2018-07-10T06:52:53.988Z,19.39
2018-07-10T06:53:53.699Z,19.55
2018-07-10T06:54:53.645Z,19.58
2018-07-10T06:55:53.609Z,19.41
2018-07-10T06:56:53.565Z,19.41
2018-07-10T06:57:53.529Z,19.22
2018-07-10T06:58:53.527Z,19.37
2018-07-10T06:59:53.467Z,19.44
2018-07-10T07:00:53.427Z,19.76
2018-07-10T07:01:53.390Z,19.87
2018-07-10T07:02:53.355Z,19.91
2018-07-10T07:03:53.321Z,19.83
2018-07-10T07:04:53.316Z,19.86
2018-07-10T07:05:53.259Z,19.66
2018-07-10T07:06:53.222Z,19.39
2018-07-10T07:07:53.243Z,19.28
2018-07-10T07:08:53.145Z,19.18
2018-07-10T07:09:53.130Z,19.11
2018-07-10T07:10:53.083Z,18.98
2018-07-10T07:11:53.043Z,18.91
2018-07-10T07:12:53.008Z,18.84
2018-07-10T07:13:52.975Z,19.04
2018-07-10T07:14:52.963Z,18.99
2018-07-10T07:15:52.940Z,18.99
2018-07-10T07:16:52.872Z,18.81
2018-07-10T07:17:52.835Z,18.85
2018-07-10T07:18:52.800Z,18.72
2018-07-10T07:19:52.798Z,18.65
2018-07-10T07:20:52.722Z,18.62
2018-07-10T07:21:52.743Z,18.69
2018-07-10T07:22:52.677Z,18.72
2018-07-10T07:23:52.636Z,18.80
2018-07-10T07:24:52.587Z,18.69
2018-07-10T07:25:52.574Z,18.62
2018-07-10T07:26:52.517Z,18.72
2018-07-10T07:27:52.533Z,18.78
2018-07-10T07:28:52.445Z,18.76
2018-07-10T07:29:52.407Z,18.85
2018-07-10T07:30:52.396Z,18.75
2018-07-10T07:31:52.336Z,18.70
2018-07-10T07:32:52.347Z,18.69
2018-07-10T07:33:52.263Z,18.55
2018-07-10T07:34:52.273Z,18.58
2018-07-10T07:35:52.214Z,18.67
2018-07-10T07:36:52.157Z,18.72
2018-07-10T07:37:52.128Z,18.62
2018-07-10T07:38:52.105Z,18.47
2018-07-10T07:39:52.049Z,18.66
2018-07-10T07:40:52.038Z,18.70
2018-07-10T07:41:51.974Z,18.72
2018-07-10T07:42:51.940Z,18.70
2018-07-10T07:43:51.958Z,18.66
2018-07-10T07:44:51.875Z,18.70
2018-07-10T07:45:51.836Z,18.54
2018-07-10T07:46:51.813Z,18.51
2018-07-10T07:47:51.759Z,18.72
2018-07-10T07:48:51.763Z,18.67
2018-07-10T07:49:51.704Z,18.55
2018-07-10T07:50:51.659Z,18.67
2018-07-10T07:51:51.645Z,18.73
2018-07-10T07:52:51.583Z,18.69
2018-07-10T07:53:51.542Z,18.48
2018-07-10T07:54:51.511Z,18.47
2018-07-10T07:55:51.513Z,18.44
2018-07-10T07:56:51.471Z,18.52
2018-07-10T07:57:51.407Z,18.60
2018-07-10T07:58:51.370Z,18.63
2018-07-10T07:59:51.335Z,18.62
2018-07-10T08:00:51.291Z,18.75
2018-07-10T08:01:51.261Z,18.78
2018-07-10T08:02:51.246Z,18.82
2018-07-10T08:03:51.192Z,18.73
2018-07-10T08:04:51.212Z,18.73
2018-07-10T08:05:51.113Z,18.91
2018-07-10T08:06:51.090Z,18.98
2018-07-10T08:07:51.061Z,19.13
2018-07-10T08:08:51.033Z,19.21
2018-07-10T08:09:50.978Z,19.29
2018-07-10T08:10:50.943Z,19.21
2018-07-10T08:11:50.911Z,19.22
2018-07-10T08:12:50.888Z,19.26
2018-07-10T08:13:50.827Z,19.32
2018-07-10T08:14:50.791Z,19.28
2018-07-10T08:15:50.753Z,19.10
2018-07-10T08:16:50.725Z,18.92
2018-07-10T08:17:50.689Z,18.91
2018-07-10T08:18:50.672Z,18.94
2018-07-10T08:19:50.610Z,18.88
2018-07-10T08:20:50.582Z,18.85
2018-07-10T08:21:50.547Z,18.76
2018-07-10T08:22:50.518Z,18.66
2018-07-10T08:23:50.495Z,18.58
2018-07-10T08:24:50.434Z,18.54
2018-07-10T08:25:50.397Z,18.45
2018-07-10T08:26:50.363Z,18.41
2018-07-10T08:27:50.330Z,18.44
2018-07-10T08:28:50.325Z,18.39
2018-07-10T08:29:50.258Z,18.42
2018-07-10T08:30:50.225Z,18.51
2018-07-10T08:31:50.193Z,18.72
2018-07-10T08:32:50.145Z,18.69
2018-07-10T08:33:50.338Z,18.63
2018-07-10T08:34:50.084Z,18.58
2018-07-10T08:35:50.051Z,18.52
2018-07-10T08:36:50.005Z,18.62
2018-07-10T08:37:49.964Z,18.58
2018-07-10T08:38:49.930Z,18.57
2018-07-10T08:39:49.913Z,18.52
2018-07-10T08:40:49.869Z,18.58
2018-07-10T08:41:49.823Z,18.76
2018-07-10T08:42:49.791Z,18.57
2018-07-10T08:43:49.757Z,18.69
2018-07-10T08:44:49.734Z,18.57
2018-07-10T08:45:49.681Z,18.41
2018-07-10T08:46:49.644Z,18.35
2018-07-10T08:47:49.608Z,18.35
2018-07-10T08:48:49.580Z,18.36
2018-07-10T08:49:49.568Z,18.47
2018-07-10T08:50:49.498Z,18.57
2018-07-10T08:51:49.480Z,18.69
2018-07-10T08:52:49.434Z,18.69
2018-07-10T08:53:49.397Z,18.69
2018-07-10T08:54:49.360Z,18.51
2018-07-10T08:55:49.346Z,18.52
2018-07-10T08:56:49.279Z,18.44
2018-07-10T08:57:49.244Z,18.23
2018-07-10T08:58:49.209Z,18.26
2018-07-10T08:59:49.205Z,18.21
2018-07-10T09:00:49.142Z,18.15
2018-07-10T09:01:49.110Z,18.07
2018-07-10T09:02:49.072Z,18.10
2018-07-10T09:03:49.040Z,18.07
2018-07-10T09:04:48.990Z,18.05
2018-07-10T09:05:48.978Z,17.99
2018-07-10T09:06:48.924Z,17.99
2018-07-10T09:07:48.893Z,18.00
2018-07-10T09:08:48.848Z,17.96
2018-07-10T09:09:48.809Z,17.89
2018-07-10T09:10:48.801Z,18.00
2018-07-10T09:11:48.732Z,18.03
2018-07-10T09:12:48.707Z,17.96
2018-07-10T09:13:48.744Z,18.07
2018-07-10T09:14:48.632Z,17.96
2018-07-10T09:15:48.615Z,18.05
2018-07-10T09:16:48.555Z,18.27
2018-07-10T09:17:48.524Z,18.27
2018-07-10T09:18:48.480Z,18.27
2018-07-10T09:19:48.444Z,18.26
2018-07-10T09:20:48.439Z,18.14
2018-07-10T09:21:48.378Z,18.05
2018-07-10T09:22:48.336Z,18.03
2018-07-10T09:23:48.298Z,17.93
2018-07-10T09:24:48.266Z,17.93
2018-07-10T09:25:48.230Z,17.81
2018-07-10T09:26:48.215Z,17.81
2018-07-10T09:27:48.156Z,17.78
2018-07-10T09:28:48.115Z,17.81
2018-07-10T09:29:48.075Z,17.63
2018-07-10T09:30:48.042Z,17.59
2018-07-10T09:31:48.031Z,17.66
2018-07-10T09:32:47.971Z,17.66
2018-07-10T09:33:47.970Z,17.75
2018-07-10T09:34:47.899Z,17.82
2018-07-10T09:35:47.865Z,17.86
2018-07-10T09:36:47.820Z,18.03
2018-07-10T09:37:47.805Z,17.89
2018-07-10T09:38:47.755Z,18.03
2018-07-10T09:39:47.728Z,17.99
2018-07-10T09:40:47.672Z,18.02
2018-07-10T09:41:47.637Z,18.10
2018-07-10T09:42:47.620Z,18.15
2018-07-10T09:43:47.563Z,18.14
2018-07-10T09:44:47.539Z,18.02
2018-07-10T09:45:47.497Z,18.05
2018-07-10T09:46:47.461Z,18.02
2018-07-10T09:47:47.448Z,18.05
2018-07-10T09:48:47.378Z,18.02
2018-07-10T09:49:47.340Z,17.82
2018-07-10T09:50:47.306Z,17.68
2018-07-10T09:51:47.267Z,17.71
2018-07-10T09:52:47.251Z,17.68
2018-07-10T09:53:47.221Z,17.71
2018-07-10T09:54:47.213Z,17.84
2018-07-10T09:55:47.170Z,17.90
2018-07-10T09:56:47.091Z,17.96
2018-07-10T09:57:47.057Z,17.95
2018-07-10T09:58:47.038Z,17.96
2018-07-10T09:59:46.977Z,18.00
2018-07-10T10:00:46.939Z,18.05
2018-07-10T10:01:46.938Z,17.99
2018-07-10T10:02:46.868Z,18.14
2018-07-10T10:03:46.852Z,18.12
2018-07-10T10:04:46.804Z,18.15
2018-07-10T10:05:46.760Z,18.27
2018-07-10T10:06:46.723Z,18.35
2018-07-10T10:07:46.684Z,18.48
2018-07-10T10:08:46.643Z,18.55
2018-07-10T10:09:46.628Z,18.54
2018-07-10T10:10:46.578Z,18.41
2018-07-10T10:11:46.538Z,18.44
2018-07-10T10:12:46.497Z,18.32
2018-07-10T10:13:46.463Z,18.29
2018-07-10T10:14:46.448Z,18.35
2018-07-10T10:15:46.385Z,18.37
2018-07-10T10:16:46.355Z,18.44
2018-07-10T10:17:46.323Z,18.37
2018-07-10T10:18:46.286Z,18.36
2018-07-10T10:19:46.278Z,18.35
2018-07-10T10:20:46.209Z,18.30
2018-07-10T10:21:46.171Z,18.29
2018-07-10T10:22:46.136Z,18.18
2018-07-10T10:23:46.095Z,18.14
2018-07-10T10:24:46.068Z,18.00
2018-07-10T10:25:46.112Z,17.96
2018-07-10T10:26:45.989Z,18.02
2018-07-10T10:27:45.952Z,17.89
2018-07-10T10:28:45.922Z,17.95
2018-07-10T10:29:45.883Z,17.86
2018-07-10T10:30:45.870Z,17.78
2018-07-10T10:31:45.813Z,17.68
2018-07-10T10:32:45.769Z,17.40
2018-07-10T10:33:45.733Z,17.34
2018-07-10T10:34:45.696Z,17.23
2018-07-10T10:35:45.704Z,17.18
2018-07-10T10:36:45.629Z,17.04
2018-07-10T10:37:45.593Z,17.04
2018-07-10T10:38:45.557Z,17.04
2018-07-10T10:39:45.517Z,17.03
2018-07-10T10:40:45.476Z,17.01
2018-07-10T10:41:45.460Z,17.06
2018-07-10T10:42:45.410Z,17.04
2018-07-10T10:43:45.368Z,17.21
2018-07-10T10:44:45.329Z,17.16
2018-07-10T10:45:45.290Z,17.16
2018-07-10T10:46:45.273Z,17.18
2018-07-10T10:47:45.216Z,17.12
2018-07-10T10:48:45.187Z,17.08
2018-07-10T10:49:45.148Z,17.07
2018-07-10T10:50:45.110Z,17.06
2018-07-10T10:51:45.102Z,17.06
2018-07-10T10:52:45.036Z,17.07
2018-07-10T10:53:44.992Z,17.08
2018-07-10T10:54:44.953Z,17.16
2018-07-10T10:55:44.918Z,17.15
2018-07-10T10:56:44.885Z,17.11
2018-07-10T10:57:44.873Z,17.16
2018-07-10T10:58:44.806Z,17.19
2018-07-10T10:59:44.769Z,17.12
2018-07-10T11:00:44.736Z,17.15
2018-07-10T11:01:44.699Z,17.19
2018-07-10T11:02:44.761Z,17.16
2018-07-10T11:03:44.626Z,17.26
2018-07-10T11:04:44.581Z,17.19
2018-07-10T11:05:44.545Z,17.28
2018-07-10T11:06:44.509Z,17.19
2018-07-10T11:07:44.491Z,17.16
2018-07-10T11:08:44.438Z,17.16
2018-07-10T11:09:44.404Z,17.30
2018-07-10T11:10:44.370Z,17.38
2018-07-10T11:11:44.327Z,17.41
2018-07-10T11:12:44.308Z,17.55
2018-07-10T11:13:44.246Z,17.51
2018-07-10T11:14:44.215Z,17.59
2018-07-10T11:15:44.177Z,17.63
2018-07-10T11:16:44.133Z,17.71
2018-07-10T11:17:44.096Z,17.72
2018-07-10T11:18:44.079Z,17.77
2018-07-10T11:19:44.023Z,17.77
2018-07-10T11:20:43.991Z,17.84
2018-07-10T11:21:43.953Z,17.93
2018-07-10T11:22:43.915Z,17.96
2018-07-10T11:23:43.905Z,18.08
2018-07-10T11:24:43.834Z,17.97
2018-07-10T11:25:43.801Z,18.14
2018-07-10T11:26:43.758Z,18.17
2018-07-10T11:27:43.723Z,18.03
2018-07-10T11:28:43.693Z,18.07
2018-07-10T11:29:43.677Z,18.00
2018-07-10T11:30:43.612Z,18.14
2018-07-10T11:31:43.575Z,18.23
2018-07-10T11:32:43.546Z,18.33
2018-07-10T11:33:43.514Z,18.29
2018-07-10T11:34:43.489Z,18.23
2018-07-10T11:35:43.430Z,18.18
2018-07-10T11:36:43.389Z,18.14
2018-07-10T11:37:43.352Z,17.92
2018-07-10T11:38:43.317Z,17.97
2018-07-10T11:39:43.305Z,17.87
2018-07-10T11:40:43.246Z,17.99
2018-07-10T11:41:43.208Z,18.02
2018-07-10T11:42:43.173Z,17.96
2018-07-10T11:43:43.137Z,17.99
2018-07-10T11:44:43.090Z,18.03
2018-07-10T11:45:43.095Z,17.96
2018-07-10T11:46:43.025Z,18.03
2018-07-10T11:47:42.988Z,18.03
2018-07-10T11:48:42.942Z,18.03
2018-07-10T11:49:42.906Z,18.21
2018-07-10T11:50:42.892Z,18.26
2018-07-10T11:51:42.871Z,18.35
2018-07-10T11:52:42.804Z,18.37
2018-07-10T11:53:42.765Z,18.35
2018-07-10T11:54:42.728Z,18.35
2018-07-10T11:55:42.718Z,18.32
2018-07-10T11:56:42.651Z,18.32
2018-07-10T11:57:42.611Z,18.32
2018-07-10T11:58:42.574Z,18.36
2018-07-10T11:59:42.537Z,18.35
2018-07-10T12:00:42.510Z,18.30
2018-07-10T12:01:42.493Z,18.26
2018-07-10T12:02:42.432Z,18.23
2018-07-10T12:03:42.391Z,18.26
2018-07-10T12:04:42.365Z,18.26
2018-07-10T12:05:42.328Z,18.20
2018-07-10T12:06:42.315Z,18.15
2018-07-10T12:07:42.250Z,18.12
2018-07-10T12:08:42.206Z,18.18
2018-07-10T12:09:42.170Z,18.18
2018-07-10T12:10:42.135Z,18.03
2018-07-10T12:11:42.118Z,18.05
2018-07-10T12:12:42.142Z,18.00
2018-07-10T12:13:42.029Z,17.99
2018-07-10T12:14:41.992Z,17.87
2018-07-10T12:15:41.953Z,17.95
2018-07-10T12:16:41.934Z,17.89
2018-07-10T12:17:41.874Z,17.84
2018-07-10T12:18:41.845Z,17.79
2018-07-10T12:19:41.804Z,17.75
2018-07-10T12:20:41.793Z,17.72
2018-07-10T12:21:41.759Z,17.79
2018-07-10T12:22:41.690Z,17.78
2018-07-10T12:23:41.654Z,17.71
2018-07-10T12:24:41.620Z,17.63
2018-07-10T12:25:41.584Z,17.52
2018-07-10T12:26:41.619Z,17.63
2018-07-10T12:27:41.509Z,17.51
2018-07-10T12:28:41.465Z,17.55
2018-07-10T12:29:41.428Z,17.48
2018-07-10T12:30:41.389Z,17.37
2018-07-10T12:31:41.374Z,17.28
2018-07-10T12:32:41.324Z,17.11
2018-07-10T12:33:41.282Z,17.07
2018-07-10T12:34:41.239Z,17.12
2018-07-10T12:35:41.227Z,17.04
2018-07-10T12:36:41.169Z,17.01
2018-07-10T12:37:41.133Z,17.01
2018-07-10T12:38:41.095Z,17.06
2018-07-10T12:39:41.059Z,16.97
2018-07-10T12:40:41.041Z,17.08
2018-07-10T12:41:41.022Z,17.08
2018-07-10T12:42:40.941Z,17.12
2018-07-10T12:43:40.902Z,17.15
2018-07-10T12:44:40.870Z,17.25
2018-07-10T12:45:40.855Z,17.37
2018-07-10T12:46:40.796Z,17.28
2018-07-10T12:47:40.757Z,17.26
2018-07-10T12:48:40.718Z,17.19
2018-07-10T12:49:40.676Z,17.28
2018-07-10T12:50:40.670Z,17.28
2018-07-10T12:51:40.605Z,17.28